TSC871 MDPC-CYXU
Flight info
| Callsign | TSC871 |
|---|---|
| Flight time | 4h 4m |
| Altitude | 32000 |
| Route | PIXAR2T PIXAR UW10 ASIVO L453 KARRN/N0461F340 L453 CERDA DCT LNHOM/M078F340 L452 GALVN/M078F360 L452 OXANA/N0448F360 AR8 ECG DCT SCOOB/N0448F350 Q119 EMI/N0449F360 J211 JST DCT TEESY DCT DORET |
| Aircraft | A321/M-SDE3FGHIRWY/LB1 |
Departure
| Time | 2026-04-26 18:05 |
|---|---|
| Airport | Punta Cana International Airport (MDPC) |
Arrival
| Time | 2026-04-26 22:10 |
|---|---|
| Airport | London International Airport (CYXU) |
| Time | Latitude | Longitude | Altitude | Speed | Heading |
|---|---|---|---|---|---|
| 2026-04-26 17:46 | 18.56385 | -68.36338 | 51 ft | 0 kts | 176° |
| 2026-04-26 17:55 | 18.56393 | -68.36338 | 50 ft | 3 kts | 176° |
| 2026-04-26 17:56 | 18.56412 | -68.36339 | 50 ft | 3 kts | 176° |
| 2026-04-26 17:56 | 18.56448 | -68.36328 | 47 ft | 3 kts | 231° |
| 2026-04-26 17:57 | 18.56468 | -68.36294 | 45 ft | 3 kts | 260° |
| 2026-04-26 17:57 | 18.56469 | -68.36288 | 45 ft | 0 kts | 260° |
| 2026-04-26 17:59 | 18.56466 | -68.36316 | 44 ft | 9 kts | 266° |
| 2026-04-26 17:59 | 18.56461 | -68.36392 | 47 ft | 10 kts | 265° |
| 2026-04-26 17:59 | 18.56456 | -68.36461 | 50 ft | 9 kts | 265° |
| 2026-04-26 17:59 | 18.56452 | -68.36520 | 50 ft | 7 kts | 269° |
| 2026-04-26 18:00 | 18.56454 | -68.36554 | 50 ft | 6 kts | 278° |
| 2026-04-26 18:00 | 18.56472 | -68.36603 | 50 ft | 5 kts | 301° |
| 2026-04-26 18:00 | 18.56490 | -68.36630 | 50 ft | 5 kts | 306° |
| 2026-04-26 18:00 | 18.56516 | -68.36673 | 50 ft | 7 kts | 298° |
| 2026-04-26 18:01 | 18.56525 | -68.36721 | 50 ft | 7 kts | 271° |
| 2026-04-26 18:01 | 18.56522 | -68.36769 | 50 ft | 6 kts | 265° |
| 2026-04-26 18:01 | 18.56518 | -68.36820 | 50 ft | 9 kts | 265° |
| 2026-04-26 18:01 | 18.56511 | -68.36901 | 50 ft | 12 kts | 265° |
| 2026-04-26 18:02 | 18.56504 | -68.36983 | 50 ft | 11 kts | 264° |
| 2026-04-26 18:02 | 18.56499 | -68.37032 | 50 ft | 10 kts | 265° |
| 2026-04-26 18:02 | 18.56492 | -68.37121 | 50 ft | 10 kts | 265° |
| 2026-04-26 18:02 | 18.56484 | -68.37213 | 50 ft | 15 kts | 264° |
| 2026-04-26 18:03 | 18.56474 | -68.37326 | 50 ft | 15 kts | 264° |
| 2026-04-26 18:03 | 18.56464 | -68.37434 | 50 ft | 15 kts | 265° |
| 2026-04-26 18:03 | 18.56455 | -68.37540 | 50 ft | 14 kts | 265° |
| 2026-04-26 18:03 | 18.56447 | -68.37645 | 47 ft | 18 kts | 265° |
| 2026-04-26 18:04 | 18.56455 | -68.37762 | 49 ft | 13 kts | 304° |
| 2026-04-26 18:04 | 18.56544 | -68.37788 | 51 ft | 16 kts | 354° |
| 2026-04-26 18:04 | 18.56616 | -68.37729 | 51 ft | 13 kts | 81° |
| 2026-04-26 18:05 | 18.56678 | -68.37032 | 53 ft | 109 kts | 84° |
| 2026-04-26 18:05 | 18.56761 | -68.36051 | 50 ft | 161 kts | 85° |
| 2026-04-26 18:05 | 18.56874 | -68.34777 | 478 ft | 170 kts | 90° |
| 2026-04-26 18:05 | 18.56962 | -68.33564 | 1234 ft | 168 kts | 89° |
| 2026-04-26 18:06 | 18.57065 | -68.32286 | 1445 ft | 187 kts | 88° |
| 2026-04-26 18:06 | 18.57433 | -68.30901 | 1594 ft | 212 kts | 57° |
| 2026-04-26 18:06 | 18.58669 | -68.30003 | 1731 ft | 231 kts | 13° |
| 2026-04-26 18:06 | 18.60341 | -68.29986 | 1867 ft | 250 kts | 353° |
| 2026-04-26 18:07 | 18.62118 | -68.30274 | 2124 ft | 267 kts | 348° |
| 2026-04-26 18:07 | 18.63994 | -68.30661 | 2720 ft | 274 kts | 347° |
| 2026-04-26 18:07 | 18.65845 | -68.31054 | 3446 ft | 276 kts | 347° |
| 2026-04-26 18:07 | 18.67125 | -68.31319 | 3917 ft | 279 kts | 348° |
| 2026-04-26 18:08 | 18.69637 | -68.31917 | 4856 ft | 281 kts | 337° |
| 2026-04-26 18:08 | 18.71327 | -68.32933 | 5515 ft | 281 kts | 318° |
| 2026-04-26 18:08 | 18.72699 | -68.34412 | 5877 ft | 283 kts | 309° |
| 2026-04-26 18:08 | 18.73993 | -68.35964 | 5968 ft | 282 kts | 309° |
| 2026-04-26 18:09 | 18.75302 | -68.37539 | 5995 ft | 283 kts | 309° |
| 2026-04-26 18:09 | 18.76588 | -68.39083 | 6595 ft | 284 kts | 309° |
| 2026-04-26 18:09 | 18.77916 | -68.40673 | 7283 ft | 285 kts | 309° |
| 2026-04-26 18:09 | 18.79217 | -68.42228 | 7931 ft | 287 kts | 309° |
| 2026-04-26 18:10 | 18.80542 | -68.43810 | 8578 ft | 289 kts | 309° |
| 2026-04-26 18:10 | 18.81881 | -68.45407 | 9216 ft | 291 kts | 309° |
| 2026-04-26 18:10 | 18.83232 | -68.47015 | 9848 ft | 294 kts | 309° |
| 2026-04-26 18:10 | 18.84604 | -68.48646 | 10218 ft | 306 kts | 309° |
| 2026-04-26 18:11 | 18.86057 | -68.50381 | 10330 ft | 325 kts | 309° |
| 2026-04-26 18:11 | 18.87596 | -68.52223 | 10464 ft | 344 kts | 309° |
| 2026-04-26 18:11 | 18.89217 | -68.54160 | 10678 ft | 357 kts | 309° |
| 2026-04-26 18:11 | 18.90873 | -68.56138 | 11149 ft | 362 kts | 309° |
| 2026-04-26 18:12 | 18.92549 | -68.58139 | 11687 ft | 364 kts | 309° |
| 2026-04-26 18:12 | 18.94235 | -68.60151 | 12234 ft | 367 kts | 308° |
| 2026-04-26 18:12 | 18.95928 | -68.62172 | 12793 ft | 370 kts | 308° |
| 2026-04-26 18:12 | 18.97637 | -68.64213 | 13327 ft | 372 kts | 308° |
| 2026-04-26 18:13 | 18.99362 | -68.66274 | 13858 ft | 375 kts | 308° |
| 2026-04-26 18:13 | 19.01089 | -68.68345 | 14333 ft | 377 kts | 308° |
| 2026-04-26 18:13 | 19.02831 | -68.70431 | 14821 ft | 379 kts | 308° |
| 2026-04-26 18:13 | 19.04011 | -68.71844 | 15150 ft | 380 kts | 308° |
| 2026-04-26 18:14 | 19.06339 | -68.74633 | 15775 ft | 383 kts | 308° |
| 2026-04-26 18:14 | 19.08101 | -68.76747 | 16245 ft | 385 kts | 308° |
| 2026-04-26 18:14 | 19.09876 | -68.78876 | 16705 ft | 387 kts | 308° |
| 2026-04-26 18:14 | 19.11660 | -68.81017 | 17166 ft | 389 kts | 308° |
| 2026-04-26 18:15 | 19.13454 | -68.83171 | 17628 ft | 391 kts | 308° |
| 2026-04-26 18:15 | 19.15284 | -68.85306 | 18058 ft | 394 kts | 310° |
| 2026-04-26 18:15 | 19.17208 | -68.87377 | 18457 ft | 396 kts | 312° |
| 2026-04-26 18:15 | 19.19199 | -68.89411 | 18816 ft | 399 kts | 313° |
| 2026-04-26 18:16 | 19.21220 | -68.91434 | 19185 ft | 401 kts | 313° |
| 2026-04-26 18:16 | 19.25277 | -68.95516 | 19905 ft | 404 kts | 312° |
| 2026-04-26 18:16 | 19.27303 | -68.97590 | 20274 ft | 406 kts | 312° |
| 2026-04-26 18:17 | 19.29329 | -68.99686 | 20630 ft | 408 kts | 311° |
| 2026-04-26 18:17 | 19.31354 | -69.01794 | 20991 ft | 410 kts | 311° |
| 2026-04-26 18:17 | 19.33389 | -69.03914 | 21346 ft | 412 kts | 311° |
| 2026-04-26 18:17 | 19.35436 | -69.06048 | 21683 ft | 414 kts | 311° |
| 2026-04-26 18:18 | 19.37495 | -69.08189 | 22043 ft | 416 kts | 311° |
| 2026-04-26 18:18 | 19.39589 | -69.10366 | 22393 ft | 418 kts | 311° |
| 2026-04-26 18:18 | 19.41639 | -69.12497 | 22733 ft | 420 kts | 311° |
| 2026-04-26 18:18 | 19.43725 | -69.14667 | 23081 ft | 422 kts | 311° |
| 2026-04-26 18:19 | 19.45828 | -69.16850 | 23427 ft | 424 kts | 311° |
| 2026-04-26 18:19 | 19.47936 | -69.19040 | 23715 ft | 425 kts | 311° |
| 2026-04-26 18:19 | 19.50050 | -69.21236 | 24012 ft | 426 kts | 311° |
| 2026-04-26 18:19 | 19.52169 | -69.23438 | 24310 ft | 427 kts | 311° |
| 2026-04-26 18:20 | 19.54295 | -69.25649 | 24614 ft | 428 kts | 310° |
| 2026-04-26 18:20 | 19.56419 | -69.27860 | 24911 ft | 429 kts | 310° |
| 2026-04-26 18:20 | 19.58554 | -69.30084 | 25199 ft | 430 kts | 310° |
| 2026-04-26 18:20 | 19.59997 | -69.31588 | 25397 ft | 431 kts | 310° |
| 2026-04-26 18:21 | 19.62829 | -69.34541 | 25787 ft | 432 kts | 310° |
| 2026-04-26 18:21 | 19.64975 | -69.36781 | 26081 ft | 433 kts | 310° |
| 2026-04-26 18:21 | 19.67125 | -69.39023 | 26368 ft | 434 kts | 310° |
| 2026-04-26 18:21 | 19.69278 | -69.41274 | 26651 ft | 435 kts | 310° |
| 2026-04-26 18:22 | 19.71434 | -69.43530 | 26928 ft | 436 kts | 310° |
| 2026-04-26 18:22 | 19.73598 | -69.45793 | 27201 ft | 437 kts | 310° |
| 2026-04-26 18:22 | 19.75765 | -69.48060 | 27455 ft | 438 kts | 310° |
| 2026-04-26 18:22 | 19.77939 | -69.50330 | 27722 ft | 439 kts | 309° |
| 2026-04-26 18:23 | 19.80120 | -69.52607 | 27978 ft | 440 kts | 309° |
| 2026-04-26 18:23 | 19.82304 | -69.54892 | 28230 ft | 441 kts | 309° |
| 2026-04-26 18:23 | 19.84492 | -69.57180 | 28489 ft | 442 kts | 309° |
| 2026-04-26 18:23 | 19.86691 | -69.59481 | 28751 ft | 444 kts | 309° |
| 2026-04-26 18:24 | 19.88890 | -69.61784 | 28980 ft | 445 kts | 309° |
| 2026-04-26 18:24 | 19.91092 | -69.64092 | 29274 ft | 444 kts | 309° |
| 2026-04-26 18:24 | 19.93384 | -69.66289 | 29627 ft | 448 kts | 316° |
| 2026-04-26 18:24 | 19.96072 | -69.68044 | 29949 ft | 458 kts | 327° |
| 2026-04-26 18:25 | 19.99091 | -69.69218 | 30210 ft | 469 kts | 339° |
| 2026-04-26 18:25 | 20.02359 | -69.69744 | 30460 ft | 480 kts | 348° |
| 2026-04-26 18:25 | 20.05690 | -69.69985 | 30687 ft | 480 kts | 348° |
| 2026-04-26 18:25 | 20.09021 | -69.70220 | 30936 ft | 480 kts | 348° |
| 2026-04-26 18:26 | 20.12352 | -69.70454 | 31186 ft | 480 kts | 348° |
| 2026-04-26 18:26 | 20.15676 | -69.70691 | 31442 ft | 479 kts | 348° |
| 2026-04-26 18:26 | 20.19000 | -69.70939 | 31681 ft | 479 kts | 348° |
| 2026-04-26 18:26 | 20.22323 | -69.71195 | 31902 ft | 479 kts | 348° |
| 2026-04-26 18:27 | 20.28915 | -69.71691 | 31961 ft | 470 kts | 348° |
| 2026-04-26 18:27 | 20.35423 | -69.72169 | 31977 ft | 468 kts | 348° |
| 2026-04-26 18:28 | 20.41926 | -69.72652 | 31973 ft | 468 kts | 348° |
| 2026-04-26 18:28 | 20.48425 | -69.73141 | 31969 ft | 468 kts | 347° |
| 2026-04-26 18:29 | 20.54927 | -69.73626 | 31968 ft | 468 kts | 347° |
| 2026-04-26 18:29 | 20.61427 | -69.74113 | 31973 ft | 468 kts | 347° |
| 2026-04-26 18:30 | 20.67926 | -69.74600 | 31977 ft | 468 kts | 347° |
| 2026-04-26 18:30 | 20.74425 | -69.75081 | 31980 ft | 468 kts | 347° |
| 2026-04-26 18:31 | 20.80930 | -69.75568 | 31984 ft | 468 kts | 347° |
| 2026-04-26 18:31 | 20.87422 | -69.76054 | 31983 ft | 468 kts | 347° |
| 2026-04-26 18:32 | 20.93922 | -69.76539 | 31980 ft | 468 kts | 347° |
| 2026-04-26 18:32 | 21.00414 | -69.77025 | 31982 ft | 468 kts | 347° |
| 2026-04-26 18:33 | 21.06906 | -69.77526 | 31984 ft | 467 kts | 347° |
| 2026-04-26 18:33 | 21.13394 | -69.78016 | 31978 ft | 467 kts | 347° |
| 2026-04-26 18:34 | 21.18778 | -69.78420 | 31976 ft | 467 kts | 347° |
| 2026-04-26 18:34 | 21.25261 | -69.78913 | 31978 ft | 467 kts | 347° |
| 2026-04-26 18:35 | 21.32795 | -69.79479 | 31985 ft | 467 kts | 347° |
| 2026-04-26 18:35 | 21.38219 | -69.79882 | 31989 ft | 467 kts | 347° |
| 2026-04-26 18:36 | 21.44701 | -69.80365 | 31987 ft | 466 kts | 347° |
| 2026-04-26 18:36 | 21.51164 | -69.80850 | 31991 ft | 466 kts | 347° |
| 2026-04-26 18:37 | 21.57620 | -69.81343 | 31996 ft | 465 kts | 347° |
| 2026-04-26 18:37 | 21.64074 | -69.81836 | 31987 ft | 465 kts | 347° |
| 2026-04-26 18:38 | 21.70520 | -69.82322 | 31983 ft | 464 kts | 347° |
| 2026-04-26 18:38 | 21.76961 | -69.82805 | 31984 ft | 464 kts | 347° |
| 2026-04-26 18:39 | 21.83394 | -69.83289 | 31990 ft | 464 kts | 347° |
| 2026-04-26 18:39 | 21.89835 | -69.83776 | 31988 ft | 463 kts | 347° |
| 2026-04-26 18:40 | 21.96263 | -69.84268 | 31992 ft | 463 kts | 347° |
| 2026-04-26 18:40 | 22.02691 | -69.84756 | 31992 ft | 463 kts | 347° |
| 2026-04-26 18:41 | 22.09108 | -69.85243 | 31987 ft | 462 kts | 347° |
| 2026-04-26 18:41 | 22.15527 | -69.85732 | 31990 ft | 462 kts | 347° |
| 2026-04-26 18:42 | 22.21943 | -69.86223 | 31990 ft | 462 kts | 347° |
| 2026-04-26 18:42 | 22.28361 | -69.86723 | 31986 ft | 462 kts | 347° |
| 2026-04-26 18:43 | 22.34723 | -69.87207 | 31984 ft | 462 kts | 347° |
| 2026-04-26 18:43 | 22.41141 | -69.87694 | 31987 ft | 462 kts | 347° |
| 2026-04-26 18:44 | 22.47547 | -69.88174 | 31991 ft | 461 kts | 347° |
| 2026-04-26 18:44 | 22.53945 | -69.88664 | 31989 ft | 461 kts | 347° |
| 2026-04-26 18:45 | 22.60345 | -69.89153 | 31992 ft | 461 kts | 348° |
| 2026-04-26 18:45 | 22.66739 | -69.89643 | 31992 ft | 460 kts | 348° |
| 2026-04-26 18:46 | 22.73104 | -69.90239 | 31992 ft | 453 kts | 341° |
| 2026-04-26 18:46 | 22.78930 | -69.92355 | 31990 ft | 437 kts | 328° |
| 2026-04-26 18:47 | 22.84487 | -69.95054 | 31981 ft | 438 kts | 328° |
| 2026-04-26 18:47 | 22.90045 | -69.97741 | 31980 ft | 438 kts | 328° |
| 2026-04-26 18:48 | 22.95613 | -70.00431 | 31976 ft | 438 kts | 329° |
| 2026-04-26 18:48 | 23.01184 | -70.03114 | 31973 ft | 438 kts | 329° |
| 2026-04-26 18:49 | 23.06761 | -70.05807 | 31973 ft | 439 kts | 329° |
| 2026-04-26 18:49 | 23.12336 | -70.08513 | 31970 ft | 439 kts | 329° |
| 2026-04-26 18:50 | 23.17915 | -70.11228 | 31974 ft | 439 kts | 329° |
| 2026-04-26 18:50 | 23.23497 | -70.13940 | 31974 ft | 440 kts | 329° |
| 2026-04-26 18:51 | 23.29078 | -70.16655 | 31960 ft | 440 kts | 330° |
| 2026-04-26 18:51 | 23.34632 | -70.19353 | 31964 ft | 440 kts | 330° |
| 2026-04-26 18:52 | 23.40225 | -70.22073 | 31977 ft | 440 kts | 330° |
| 2026-04-26 18:52 | 23.45855 | -70.24816 | 31974 ft | 440 kts | 330° |
| 2026-04-26 18:53 | 23.51414 | -70.27528 | 31977 ft | 441 kts | 330° |
| 2026-04-26 18:53 | 23.57045 | -70.30282 | 31980 ft | 441 kts | 330° |
| 2026-04-26 18:54 | 23.62635 | -70.33025 | 31982 ft | 441 kts | 330° |
| 2026-04-26 18:54 | 23.68233 | -70.35766 | 31974 ft | 441 kts | 330° |
| 2026-04-26 18:55 | 23.73804 | -70.38485 | 31970 ft | 441 kts | 331° |
| 2026-04-26 18:55 | 23.79443 | -70.41252 | 31979 ft | 442 kts | 330° |
| 2026-04-26 18:56 | 23.85054 | -70.43999 | 31975 ft | 442 kts | 331° |
| 2026-04-26 18:56 | 23.90668 | -70.46747 | 31986 ft | 442 kts | 331° |
| 2026-04-26 18:57 | 23.95330 | -70.49039 | 31982 ft | 442 kts | 331° |
| 2026-04-26 18:57 | 24.01886 | -70.52275 | 31988 ft | 442 kts | 331° |
| 2026-04-26 18:58 | 24.07465 | -70.55024 | 31989 ft | 443 kts | 331° |
| 2026-04-26 18:58 | 24.13080 | -70.57785 | 31986 ft | 443 kts | 331° |
| 2026-04-26 18:59 | 24.18704 | -70.60555 | 31986 ft | 443 kts | 331° |
| 2026-04-26 18:59 | 24.24323 | -70.63336 | 31986 ft | 443 kts | 331° |
| 2026-04-26 19:00 | 24.29940 | -70.66130 | 31985 ft | 443 kts | 331° |
| 2026-04-26 19:00 | 24.35567 | -70.68918 | 31983 ft | 444 kts | 331° |
| 2026-04-26 19:01 | 24.41196 | -70.71703 | 31986 ft | 444 kts | 331° |
| 2026-04-26 19:01 | 24.46858 | -70.74503 | 31990 ft | 444 kts | 331° |
| 2026-04-26 19:02 | 24.52451 | -70.77278 | 31991 ft | 444 kts | 331° |
| 2026-04-26 19:02 | 24.57168 | -70.79622 | 31992 ft | 444 kts | 331° |
| 2026-04-26 19:03 | 24.63700 | -70.82877 | 31996 ft | 444 kts | 332° |
| 2026-04-26 19:03 | 24.69369 | -70.85696 | 31996 ft | 444 kts | 332° |
| 2026-04-26 19:04 | 24.74954 | -70.88477 | 31996 ft | 444 kts | 332° |
| 2026-04-26 19:04 | 24.80576 | -70.91283 | 31991 ft | 444 kts | 332° |
| 2026-04-26 19:05 | 24.89012 | -70.95507 | 31995 ft | 444 kts | 332° |
| 2026-04-26 19:06 | 24.94632 | -70.98320 | 31999 ft | 444 kts | 332° |
| 2026-04-26 19:06 | 25.00306 | -71.01022 | 32000 ft | 446 kts | 339° |
| 2026-04-26 19:07 | 25.06356 | -71.02691 | 32002 ft | 448 kts | 343° |
| 2026-04-26 19:07 | 25.12417 | -71.04296 | 32003 ft | 448 kts | 343° |
| 2026-04-26 19:08 | 25.18475 | -71.05921 | 32003 ft | 448 kts | 343° |
| 2026-04-26 19:08 | 25.24541 | -71.07539 | 32004 ft | 448 kts | 343° |
| 2026-04-26 19:09 | 25.30605 | -71.09152 | 32002 ft | 448 kts | 343° |
| 2026-04-26 19:09 | 25.36661 | -71.10771 | 32004 ft | 448 kts | 343° |
| 2026-04-26 19:10 | 25.42711 | -71.12394 | 31999 ft | 448 kts | 343° |
| 2026-04-26 19:10 | 25.48767 | -71.14020 | 32000 ft | 448 kts | 343° |
| 2026-04-26 19:11 | 25.54817 | -71.15642 | 32001 ft | 448 kts | 343° |
| 2026-04-26 19:11 | 25.60874 | -71.17263 | 32004 ft | 448 kts | 343° |
| 2026-04-26 19:12 | 25.66929 | -71.18894 | 32005 ft | 447 kts | 343° |
| 2026-04-26 19:12 | 25.72975 | -71.20523 | 32006 ft | 447 kts | 343° |
| 2026-04-26 19:13 | 25.79029 | -71.22145 | 32006 ft | 447 kts | 343° |
| 2026-04-26 19:13 | 25.85077 | -71.23774 | 32005 ft | 447 kts | 343° |
| 2026-04-26 19:14 | 25.91122 | -71.25413 | 32009 ft | 447 kts | 343° |
| 2026-04-26 19:14 | 25.97130 | -71.27040 | 32008 ft | 447 kts | 343° |
| 2026-04-26 19:15 | 26.03179 | -71.28675 | 32009 ft | 447 kts | 343° |
| 2026-04-26 19:15 | 26.09225 | -71.30308 | 32008 ft | 447 kts | 343° |
| 2026-04-26 19:16 | 26.15277 | -71.31942 | 32010 ft | 447 kts | 343° |
| 2026-04-26 19:16 | 26.21323 | -71.33575 | 32009 ft | 447 kts | 343° |
| 2026-04-26 19:17 | 26.27380 | -71.35219 | 32009 ft | 448 kts | 343° |
| 2026-04-26 19:17 | 26.33427 | -71.36869 | 32008 ft | 448 kts | 343° |
| 2026-04-26 19:18 | 26.39474 | -71.38526 | 32005 ft | 448 kts | 343° |
| 2026-04-26 19:18 | 26.45529 | -71.40175 | 32004 ft | 448 kts | 343° |
| 2026-04-26 19:19 | 26.51584 | -71.41818 | 32003 ft | 448 kts | 343° |
| 2026-04-26 19:19 | 26.57643 | -71.43474 | 32005 ft | 448 kts | 343° |
| 2026-04-26 19:20 | 26.62676 | -71.44846 | 32002 ft | 448 kts | 343° |
| 2026-04-26 19:20 | 26.68734 | -71.46504 | 32000 ft | 448 kts | 343° |
| 2026-04-26 19:21 | 26.74795 | -71.48170 | 32006 ft | 448 kts | 343° |
| 2026-04-26 19:21 | 26.80856 | -71.49834 | 32005 ft | 449 kts | 343° |
| 2026-04-26 19:22 | 26.86926 | -71.51490 | 32005 ft | 449 kts | 343° |
| 2026-04-26 19:22 | 26.92993 | -71.53156 | 32006 ft | 449 kts | 343° |
| 2026-04-26 19:23 | 26.99065 | -71.54832 | 32005 ft | 449 kts | 343° |
| 2026-04-26 19:23 | 27.05135 | -71.56507 | 32004 ft | 449 kts | 343° |
| 2026-04-26 19:24 | 27.11210 | -71.58187 | 32007 ft | 450 kts | 343° |
| 2026-04-26 19:24 | 27.20325 | -71.60690 | 32008 ft | 450 kts | 343° |
| 2026-04-26 19:25 | 27.25375 | -71.62085 | 32010 ft | 450 kts | 343° |
| 2026-04-26 19:25 | 27.32476 | -71.64056 | 32010 ft | 450 kts | 343° |
| 2026-04-26 19:26 | 27.38545 | -71.65742 | 32009 ft | 450 kts | 343° |
| 2026-04-26 19:26 | 27.44627 | -71.67428 | 32012 ft | 450 kts | 343° |
| 2026-04-26 19:27 | 27.50702 | -71.69115 | 32010 ft | 450 kts | 343° |
| 2026-04-26 19:27 | 27.56779 | -71.70807 | 32013 ft | 450 kts | 343° |
| 2026-04-26 19:28 | 27.62854 | -71.72490 | 32015 ft | 450 kts | 343° |
| 2026-04-26 19:28 | 27.68935 | -71.74187 | 32014 ft | 450 kts | 342° |
| 2026-04-26 19:29 | 27.75003 | -71.75880 | 32014 ft | 450 kts | 342° |
| 2026-04-26 19:29 | 27.81080 | -71.77584 | 32015 ft | 450 kts | 342° |
| 2026-04-26 19:30 | 27.87155 | -71.79288 | 32015 ft | 450 kts | 342° |
| 2026-04-26 19:30 | 27.92206 | -71.80702 | 32015 ft | 450 kts | 342° |
| 2026-04-26 19:31 | 27.99266 | -71.82679 | 32019 ft | 450 kts | 342° |
| 2026-04-26 19:31 | 28.05380 | -71.84392 | 32015 ft | 450 kts | 342° |
| 2026-04-26 19:32 | 28.11457 | -71.86095 | 32013 ft | 450 kts | 342° |
| 2026-04-26 19:32 | 28.17534 | -71.87803 | 32016 ft | 450 kts | 342° |
| 2026-04-26 19:33 | 28.23615 | -71.89510 | 32016 ft | 450 kts | 342° |
| 2026-04-26 19:33 | 28.29695 | -71.91229 | 32019 ft | 450 kts | 342° |
| 2026-04-26 19:34 | 28.35740 | -71.92941 | 32014 ft | 451 kts | 342° |
| 2026-04-26 19:34 | 28.41824 | -71.94660 | 32016 ft | 451 kts | 342° |
| 2026-04-26 19:35 | 28.47916 | -71.96381 | 32014 ft | 451 kts | 342° |
| 2026-04-26 19:35 | 28.54046 | -71.98114 | 32013 ft | 451 kts | 342° |
| 2026-04-26 19:36 | 28.59114 | -71.99558 | 32017 ft | 451 kts | 342° |
| 2026-04-26 19:36 | 28.66198 | -72.01568 | 32013 ft | 452 kts | 342° |
| 2026-04-26 19:37 | 28.72295 | -72.03306 | 32019 ft | 452 kts | 341° |
| 2026-04-26 19:37 | 28.78395 | -72.05048 | 32021 ft | 452 kts | 341° |
| 2026-04-26 19:38 | 28.84499 | -72.06782 | 32014 ft | 452 kts | 341° |
| 2026-04-26 19:38 | 28.90605 | -72.08523 | 32015 ft | 452 kts | 341° |
| 2026-04-26 19:39 | 28.96709 | -72.10270 | 32018 ft | 452 kts | 341° |
| 2026-04-26 19:39 | 29.02819 | -72.12014 | 32019 ft | 453 kts | 341° |
| 2026-04-26 19:40 | 29.08926 | -72.13759 | 32021 ft | 453 kts | 341° |
| 2026-04-26 19:40 | 29.15037 | -72.15512 | 32021 ft | 453 kts | 341° |
| 2026-04-26 19:41 | 29.21154 | -72.17271 | 32021 ft | 453 kts | 341° |
| 2026-04-26 19:41 | 29.26233 | -72.18735 | 32023 ft | 453 kts | 341° |
| 2026-04-26 19:42 | 29.33371 | -72.20792 | 32024 ft | 453 kts | 341° |
| 2026-04-26 19:42 | 29.39486 | -72.22549 | 32026 ft | 453 kts | 341° |
| 2026-04-26 19:43 | 29.45597 | -72.24313 | 32027 ft | 453 kts | 341° |
| 2026-04-26 19:43 | 29.51714 | -72.26081 | 32031 ft | 453 kts | 341° |
| 2026-04-26 19:44 | 29.57821 | -72.27845 | 32033 ft | 453 kts | 341° |
| 2026-04-26 19:44 | 29.63926 | -72.29621 | 32036 ft | 452 kts | 341° |
| 2026-04-26 19:45 | 29.70032 | -72.31389 | 32032 ft | 452 kts | 341° |
| 2026-04-26 19:45 | 29.76137 | -72.33158 | 32027 ft | 452 kts | 341° |
| 2026-04-26 19:46 | 29.82234 | -72.34932 | 32030 ft | 452 kts | 341° |
| 2026-04-26 19:46 | 29.88336 | -72.36704 | 32033 ft | 452 kts | 341° |
| 2026-04-26 19:47 | 29.93402 | -72.38183 | 32033 ft | 452 kts | 341° |
| 2026-04-26 19:47 | 30.00520 | -72.40265 | 32033 ft | 451 kts | 341° |
| 2026-04-26 19:48 | 30.06607 | -72.42043 | 32033 ft | 451 kts | 341° |
| 2026-04-26 19:48 | 30.12694 | -72.43817 | 32031 ft | 451 kts | 341° |
| 2026-04-26 19:49 | 30.18780 | -72.45599 | 32031 ft | 451 kts | 340° |
| 2026-04-26 19:49 | 30.24849 | -72.47414 | 32035 ft | 450 kts | 340° |
| 2026-04-26 19:50 | 30.30916 | -72.49237 | 32030 ft | 450 kts | 340° |
| 2026-04-26 19:50 | 30.36970 | -72.51055 | 32033 ft | 450 kts | 340° |
| 2026-04-26 19:51 | 30.43030 | -72.52858 | 32034 ft | 449 kts | 340° |
| 2026-04-26 19:51 | 30.49089 | -72.54664 | 32031 ft | 449 kts | 340° |
| 2026-04-26 19:52 | 30.55138 | -72.56474 | 32032 ft | 449 kts | 340° |
| 2026-04-26 19:52 | 30.61177 | -72.58296 | 32032 ft | 448 kts | 340° |
| 2026-04-26 19:53 | 30.67215 | -72.60110 | 32031 ft | 448 kts | 340° |
| 2026-04-26 19:53 | 30.73251 | -72.61926 | 32031 ft | 448 kts | 340° |
| 2026-04-26 19:54 | 30.79277 | -72.63744 | 32033 ft | 448 kts | 340° |
| 2026-04-26 19:54 | 30.85300 | -72.65564 | 32028 ft | 447 kts | 340° |
| 2026-04-26 19:55 | 30.91326 | -72.67390 | 32029 ft | 447 kts | 341° |
| 2026-04-26 19:55 | 30.97349 | -72.69212 | 32019 ft | 447 kts | 341° |
| 2026-04-26 19:56 | 31.03378 | -72.71038 | 32025 ft | 447 kts | 341° |
| 2026-04-26 19:56 | 31.09404 | -72.72866 | 32016 ft | 447 kts | 341° |
| 2026-04-26 19:57 | 31.15432 | -72.74704 | 32028 ft | 447 kts | 341° |
| 2026-04-26 19:57 | 31.21452 | -72.76531 | 32025 ft | 447 kts | 341° |
| 2026-04-26 19:58 | 31.27476 | -72.78368 | 32024 ft | 447 kts | 340° |
| 2026-04-26 19:58 | 31.33454 | -72.80193 | 32028 ft | 447 kts | 340° |
| 2026-04-26 19:59 | 31.39466 | -72.82030 | 32033 ft | 447 kts | 341° |
| 2026-04-26 19:59 | 31.45478 | -72.83864 | 32026 ft | 446 kts | 341° |
| 2026-04-26 20:00 | 31.51486 | -72.85702 | 32032 ft | 446 kts | 341° |
| 2026-04-26 20:00 | 31.57489 | -72.87547 | 32021 ft | 446 kts | 341° |
| 2026-04-26 20:01 | 31.63490 | -72.89394 | 32021 ft | 446 kts | 341° |
| 2026-04-26 20:01 | 31.69499 | -72.91236 | 32022 ft | 446 kts | 341° |
| 2026-04-26 20:02 | 31.75504 | -72.93088 | 32019 ft | 446 kts | 341° |
| 2026-04-26 20:02 | 31.79523 | -72.94326 | 32015 ft | 446 kts | 341° |
| 2026-04-26 20:03 | 31.87526 | -72.96795 | 32012 ft | 447 kts | 341° |
| 2026-04-26 20:03 | 31.93542 | -72.98654 | 32005 ft | 447 kts | 341° |
| 2026-04-26 20:04 | 31.98549 | -73.00199 | 32006 ft | 448 kts | 341° |
| 2026-04-26 20:04 | 32.04576 | -73.02068 | 32005 ft | 448 kts | 341° |
| 2026-04-26 20:05 | 32.10603 | -73.03944 | 32007 ft | 448 kts | 341° |
| 2026-04-26 20:05 | 32.16637 | -73.05817 | 32005 ft | 449 kts | 341° |
| 2026-04-26 20:06 | 32.22675 | -73.07693 | 32008 ft | 449 kts | 340° |
| 2026-04-26 20:06 | 32.28712 | -73.09575 | 32007 ft | 449 kts | 340° |
| 2026-04-26 20:07 | 32.34754 | -73.11465 | 32006 ft | 449 kts | 340° |
| 2026-04-26 20:07 | 32.40832 | -73.13365 | 32005 ft | 449 kts | 340° |
| 2026-04-26 20:08 | 32.46839 | -73.15240 | 32005 ft | 449 kts | 340° |
| 2026-04-26 20:08 | 32.52887 | -73.17139 | 32005 ft | 450 kts | 340° |
| 2026-04-26 20:09 | 32.58931 | -73.19037 | 32001 ft | 450 kts | 340° |
| 2026-04-26 20:09 | 32.64987 | -73.20937 | 32004 ft | 450 kts | 340° |
| 2026-04-26 20:10 | 32.71035 | -73.22840 | 32003 ft | 450 kts | 340° |
| 2026-04-26 20:10 | 32.77090 | -73.24745 | 32006 ft | 450 kts | 340° |
| 2026-04-26 20:11 | 32.83141 | -73.26652 | 32005 ft | 450 kts | 340° |
| 2026-04-26 20:12 | 32.92223 | -73.29531 | 32000 ft | 450 kts | 340° |
| 2026-04-26 20:12 | 32.98273 | -73.31450 | 32001 ft | 450 kts | 340° |
| 2026-04-26 20:13 | 33.04336 | -73.33370 | 32004 ft | 450 kts | 340° |
| 2026-04-26 20:13 | 33.10389 | -73.35287 | 32003 ft | 451 kts | 340° |
| 2026-04-26 20:14 | 33.16446 | -73.37213 | 32001 ft | 451 kts | 340° |
| 2026-04-26 20:14 | 33.22508 | -73.39144 | 32000 ft | 451 kts | 340° |
| 2026-04-26 20:15 | 33.28572 | -73.41077 | 31997 ft | 451 kts | 340° |
| 2026-04-26 20:15 | 33.34626 | -73.43021 | 32000 ft | 451 kts | 340° |
| 2026-04-26 20:16 | 33.40685 | -73.44956 | 31994 ft | 451 kts | 340° |
| 2026-04-26 20:16 | 33.46743 | -73.46890 | 31991 ft | 451 kts | 340° |
| 2026-04-26 20:17 | 33.52795 | -73.48832 | 31997 ft | 451 kts | 340° |
| 2026-04-26 20:17 | 33.58858 | -73.50787 | 31998 ft | 451 kts | 340° |
| 2026-04-26 20:18 | 33.64916 | -73.52736 | 31995 ft | 451 kts | 340° |
| 2026-04-26 20:18 | 33.70984 | -73.54679 | 31995 ft | 451 kts | 340° |
| 2026-04-26 20:19 | 33.77041 | -73.56641 | 31996 ft | 451 kts | 340° |
| 2026-04-26 20:19 | 33.83105 | -73.58610 | 32001 ft | 451 kts | 340° |
| 2026-04-26 20:20 | 33.89167 | -73.60565 | 32001 ft | 451 kts | 340° |
| 2026-04-26 20:20 | 33.95239 | -73.62528 | 32003 ft | 451 kts | 340° |
| 2026-04-26 20:21 | 34.01298 | -73.64496 | 32002 ft | 451 kts | 340° |
| 2026-04-26 20:21 | 34.07350 | -73.66472 | 32002 ft | 451 kts | 340° |
| 2026-04-26 20:22 | 34.13397 | -73.68440 | 32009 ft | 450 kts | 341° |
| 2026-04-26 20:22 | 34.19439 | -73.70414 | 32009 ft | 449 kts | 341° |
| 2026-04-26 20:23 | 34.25472 | -73.72371 | 32016 ft | 449 kts | 341° |
| 2026-04-26 20:23 | 34.31496 | -73.74339 | 32012 ft | 447 kts | 340° |
| 2026-04-26 20:24 | 34.37050 | -73.77468 | 32011 ft | 437 kts | 321° |
| 2026-04-26 20:24 | 34.41493 | -73.82378 | 32001 ft | 432 kts | 311° |
| 2026-04-26 20:25 | 34.45712 | -73.87582 | 31995 ft | 433 kts | 311° |
| 2026-04-26 20:25 | 34.49940 | -73.92777 | 31986 ft | 433 kts | 311° |
| 2026-04-26 20:26 | 34.54160 | -73.97994 | 31997 ft | 434 kts | 311° |
| 2026-04-26 20:26 | 34.58383 | -74.03244 | 31984 ft | 434 kts | 311° |
| 2026-04-26 20:27 | 34.62616 | -74.08491 | 31971 ft | 435 kts | 311° |
| 2026-04-26 20:27 | 34.66849 | -74.13756 | 31972 ft | 436 kts | 311° |
| 2026-04-26 20:28 | 34.71094 | -74.19047 | 31974 ft | 437 kts | 310° |
| 2026-04-26 20:28 | 34.75340 | -74.24351 | 31971 ft | 438 kts | 310° |
| 2026-04-26 20:29 | 34.79601 | -74.29673 | 31975 ft | 440 kts | 310° |
| 2026-04-26 20:29 | 34.83841 | -74.34972 | 31983 ft | 440 kts | 310° |
| 2026-04-26 20:30 | 34.88111 | -74.40323 | 31989 ft | 441 kts | 310° |
| 2026-04-26 20:30 | 34.92383 | -74.45691 | 31996 ft | 441 kts | 310° |
| 2026-04-26 20:31 | 34.96649 | -74.51064 | 31999 ft | 441 kts | 310° |
| 2026-04-26 20:31 | 35.00920 | -74.56440 | 32006 ft | 441 kts | 310° |
| 2026-04-26 20:32 | 35.05190 | -74.61822 | 32018 ft | 441 kts | 310° |
| 2026-04-26 20:32 | 35.09459 | -74.67209 | 32021 ft | 441 kts | 309° |
| 2026-04-26 20:33 | 35.13720 | -74.72606 | 32032 ft | 442 kts | 309° |
| 2026-04-26 20:33 | 35.17975 | -74.78003 | 32034 ft | 441 kts | 309° |
| 2026-04-26 20:34 | 35.22240 | -74.83414 | 32042 ft | 442 kts | 309° |
| 2026-04-26 20:34 | 35.26500 | -74.88829 | 32042 ft | 441 kts | 309° |
| 2026-04-26 20:35 | 35.30743 | -74.94236 | 32046 ft | 441 kts | 309° |
| 2026-04-26 20:35 | 35.34982 | -74.99655 | 32047 ft | 441 kts | 309° |
| 2026-04-26 20:36 | 35.39226 | -75.05080 | 32062 ft | 441 kts | 309° |
| 2026-04-26 20:36 | 35.43467 | -75.10506 | 32056 ft | 441 kts | 309° |
| 2026-04-26 20:37 | 35.47706 | -75.15936 | 32058 ft | 441 kts | 309° |
| 2026-04-26 20:37 | 35.51942 | -75.21367 | 32060 ft | 441 kts | 309° |
| 2026-04-26 20:38 | 35.56182 | -75.26813 | 32060 ft | 441 kts | 308° |
| 2026-04-26 20:38 | 35.60414 | -75.32279 | 32064 ft | 442 kts | 308° |
| 2026-04-26 20:39 | 35.64625 | -75.37729 | 32070 ft | 442 kts | 308° |
| 2026-04-26 20:39 | 35.68866 | -75.43209 | 32074 ft | 443 kts | 308° |
| 2026-04-26 20:40 | 35.73112 | -75.48705 | 32080 ft | 443 kts | 308° |
| 2026-04-26 20:40 | 35.77361 | -75.54201 | 32082 ft | 444 kts | 308° |
| 2026-04-26 20:41 | 35.81615 | -75.59724 | 32101 ft | 444 kts | 308° |
| 2026-04-26 20:41 | 35.85860 | -75.65262 | 32102 ft | 444 kts | 308° |
| 2026-04-26 20:42 | 35.90109 | -75.70805 | 32109 ft | 445 kts | 308° |
| 2026-04-26 20:42 | 35.94368 | -75.76343 | 32104 ft | 445 kts | 308° |
| 2026-04-26 20:43 | 35.98627 | -75.81886 | 32105 ft | 445 kts | 308° |
| 2026-04-26 20:43 | 36.02877 | -75.87450 | 32093 ft | 445 kts | 308° |
| 2026-04-26 20:44 | 36.07099 | -75.92986 | 32095 ft | 445 kts | 308° |
| 2026-04-26 20:44 | 36.11345 | -75.98558 | 32107 ft | 445 kts | 308° |
| 2026-04-26 20:45 | 36.15580 | -76.04135 | 32111 ft | 445 kts | 308° |
| 2026-04-26 20:45 | 36.19123 | -76.08805 | 32116 ft | 445 kts | 308° |
| 2026-04-26 20:46 | 36.24207 | -76.15136 | 32113 ft | 451 kts | 317° |
| 2026-04-26 20:46 | 36.29776 | -76.18858 | 32113 ft | 463 kts | 338° |
| 2026-04-26 20:47 | 36.36022 | -76.20982 | 32110 ft | 465 kts | 341° |
| 2026-04-26 20:47 | 36.42273 | -76.23077 | 32109 ft | 465 kts | 340° |
| 2026-04-26 20:48 | 36.47504 | -76.24842 | 32120 ft | 465 kts | 340° |
| 2026-04-26 20:48 | 36.53741 | -76.26951 | 32135 ft | 465 kts | 340° |
| 2026-04-26 20:49 | 36.59973 | -76.29053 | 32138 ft | 464 kts | 340° |
| 2026-04-26 20:49 | 36.66170 | -76.31143 | 32141 ft | 464 kts | 340° |
| 2026-04-26 20:50 | 36.72437 | -76.33267 | 32143 ft | 463 kts | 340° |
| 2026-04-26 20:50 | 36.78637 | -76.35367 | 32145 ft | 462 kts | 340° |
| 2026-04-26 20:51 | 36.84833 | -76.37472 | 32146 ft | 461 kts | 340° |
| 2026-04-26 20:51 | 36.90983 | -76.39566 | 32149 ft | 460 kts | 340° |
| 2026-04-26 20:52 | 36.97185 | -76.41677 | 32153 ft | 459 kts | 341° |
| 2026-04-26 20:52 | 37.03340 | -76.43783 | 32143 ft | 457 kts | 340° |
| 2026-04-26 20:53 | 37.09420 | -76.45865 | 32148 ft | 456 kts | 341° |
| 2026-04-26 20:53 | 37.15538 | -76.47960 | 32164 ft | 455 kts | 341° |
| 2026-04-26 20:54 | 37.21621 | -76.50046 | 32156 ft | 453 kts | 341° |
| 2026-04-26 20:54 | 37.27696 | -76.52131 | 32163 ft | 451 kts | 341° |
| 2026-04-26 20:55 | 37.33742 | -76.54221 | 32161 ft | 450 kts | 341° |
| 2026-04-26 20:55 | 37.39776 | -76.56302 | 32168 ft | 448 kts | 341° |
| 2026-04-26 20:56 | 37.45782 | -76.58372 | 32194 ft | 447 kts | 341° |
| 2026-04-26 20:56 | 37.51767 | -76.60445 | 32190 ft | 445 kts | 342° |
| 2026-04-26 20:57 | 37.57737 | -76.62515 | 32185 ft | 444 kts | 342° |
| 2026-04-26 20:57 | 37.63828 | -76.63842 | 32184 ft | 445 kts | 349° |
| 2026-04-26 20:58 | 37.69987 | -76.64924 | 32187 ft | 443 kts | 349° |
| 2026-04-26 20:58 | 37.76090 | -76.66021 | 32196 ft | 442 kts | 349° |
| 2026-04-26 20:59 | 37.82176 | -76.67121 | 32194 ft | 441 kts | 349° |
| 2026-04-26 20:59 | 37.88245 | -76.68213 | 32195 ft | 440 kts | 349° |
| 2026-04-26 21:00 | 37.94303 | -76.69297 | 32193 ft | 439 kts | 349° |
| 2026-04-26 21:00 | 38.00342 | -76.70384 | 32190 ft | 438 kts | 349° |
| 2026-04-26 21:01 | 38.06371 | -76.71475 | 32179 ft | 437 kts | 349° |
| 2026-04-26 21:01 | 38.12380 | -76.72559 | 32184 ft | 435 kts | 349° |
| 2026-04-26 21:02 | 38.18372 | -76.73644 | 32190 ft | 434 kts | 349° |
| 2026-04-26 21:02 | 38.24346 | -76.74729 | 32188 ft | 433 kts | 349° |
| 2026-04-26 21:03 | 38.30313 | -76.75809 | 32184 ft | 433 kts | 349° |
| 2026-04-26 21:03 | 38.36254 | -76.76891 | 32185 ft | 432 kts | 349° |
| 2026-04-26 21:04 | 38.42167 | -76.77971 | 32184 ft | 431 kts | 349° |
| 2026-04-26 21:04 | 38.48105 | -76.79055 | 32182 ft | 431 kts | 349° |
| 2026-04-26 21:05 | 38.54070 | -76.80149 | 32183 ft | 430 kts | 349° |
| 2026-04-26 21:05 | 38.59946 | -76.81228 | 32184 ft | 429 kts | 349° |
| 2026-04-26 21:06 | 38.65855 | -76.82313 | 32184 ft | 428 kts | 349° |
| 2026-04-26 21:06 | 38.71751 | -76.83394 | 32192 ft | 428 kts | 349° |
| 2026-04-26 21:07 | 38.77673 | -76.84482 | 32189 ft | 427 kts | 349° |
| 2026-04-26 21:07 | 38.83514 | -76.85556 | 32192 ft | 426 kts | 349° |
| 2026-04-26 21:08 | 38.89378 | -76.86636 | 32193 ft | 425 kts | 349° |
| 2026-04-26 21:08 | 38.95227 | -76.87725 | 32202 ft | 424 kts | 349° |
| 2026-04-26 21:09 | 39.01056 | -76.88814 | 32207 ft | 423 kts | 350° |
| 2026-04-26 21:09 | 39.06884 | -76.89897 | 32199 ft | 422 kts | 350° |
| 2026-04-26 21:10 | 39.12693 | -76.90983 | 32218 ft | 421 kts | 350° |
| 2026-04-26 21:10 | 39.18490 | -76.92054 | 32221 ft | 420 kts | 350° |
| 2026-04-26 21:11 | 39.24265 | -76.93132 | 32218 ft | 419 kts | 350° |
| 2026-04-26 21:11 | 39.30028 | -76.94212 | 32221 ft | 418 kts | 350° |
| 2026-04-26 21:12 | 39.35778 | -76.95290 | 32216 ft | 418 kts | 350° |
| 2026-04-26 21:12 | 39.41533 | -76.96364 | 32191 ft | 417 kts | 349° |
| 2026-04-26 21:12 | 39.44335 | -76.97233 | 32190 ft | 414 kts | 338° |
| 2026-04-26 21:13 | 39.46923 | -76.98833 | 32189 ft | 412 kts | 327° |
| 2026-04-26 21:13 | 39.49196 | -77.01080 | 32186 ft | 411 kts | 316° |
| 2026-04-26 21:13 | 39.51059 | -77.03893 | 32182 ft | 412 kts | 304° |
| 2026-04-26 21:14 | 39.53488 | -77.10604 | 32176 ft | 414 kts | 293° |
| 2026-04-26 21:14 | 39.55629 | -77.17522 | 32173 ft | 414 kts | 294° |
| 2026-04-26 21:15 | 39.57784 | -77.24445 | 32177 ft | 414 kts | 294° |
| 2026-04-26 21:15 | 39.59935 | -77.31371 | 32194 ft | 414 kts | 294° |
| 2026-04-26 21:16 | 39.62084 | -77.38309 | 32197 ft | 414 kts | 293° |
| 2026-04-26 21:16 | 39.64219 | -77.45249 | 32187 ft | 414 kts | 293° |
| 2026-04-26 21:17 | 39.66351 | -77.52199 | 32186 ft | 415 kts | 293° |
| 2026-04-26 21:17 | 39.68483 | -77.59152 | 32183 ft | 414 kts | 293° |
| 2026-04-26 21:18 | 39.70602 | -77.66102 | 32181 ft | 414 kts | 293° |
| 2026-04-26 21:18 | 39.72728 | -77.73060 | 32178 ft | 414 kts | 294° |
| 2026-04-26 21:19 | 39.74849 | -77.80018 | 32178 ft | 414 kts | 293° |
| 2026-04-26 21:19 | 39.76960 | -77.86984 | 32181 ft | 414 kts | 293° |
| 2026-04-26 21:20 | 39.79071 | -77.93961 | 32183 ft | 414 kts | 293° |
| 2026-04-26 21:20 | 39.81170 | -78.00938 | 32183 ft | 414 kts | 293° |
| 2026-04-26 21:21 | 39.83319 | -78.07888 | 32183 ft | 413 kts | 298° |
| 2026-04-26 21:21 | 39.86566 | -78.13985 | 32204 ft | 410 kts | 311° |
| 2026-04-26 21:22 | 39.90290 | -78.19620 | 32184 ft | 410 kts | 311° |
| 2026-04-26 21:22 | 39.93996 | -78.25278 | 32184 ft | 411 kts | 311° |
| 2026-04-26 21:23 | 39.99545 | -78.33784 | 32191 ft | 411 kts | 311° |
| 2026-04-26 21:23 | 40.03244 | -78.39461 | 32185 ft | 410 kts | 311° |
| 2026-04-26 21:24 | 40.06945 | -78.45139 | 32195 ft | 410 kts | 311° |
| 2026-04-26 21:24 | 40.10635 | -78.50822 | 32191 ft | 410 kts | 311° |
| 2026-04-26 21:25 | 40.14320 | -78.56512 | 32194 ft | 410 kts | 311° |
| 2026-04-26 21:25 | 40.17998 | -78.62191 | 32200 ft | 410 kts | 311° |
| 2026-04-26 21:26 | 40.21683 | -78.67886 | 32170 ft | 409 kts | 311° |
| 2026-04-26 21:26 | 40.25358 | -78.73581 | 32180 ft | 409 kts | 311° |
| 2026-04-26 21:27 | 40.29022 | -78.79275 | 32178 ft | 409 kts | 311° |
| 2026-04-26 21:27 | 40.32851 | -78.84755 | 32175 ft | 408 kts | 320° |
| 2026-04-26 21:28 | 40.37150 | -78.89610 | 32172 ft | 407 kts | 320° |
| 2026-04-26 21:28 | 40.40711 | -78.93645 | 32176 ft | 407 kts | 319° |
| 2026-04-26 21:29 | 40.44994 | -78.98503 | 32179 ft | 407 kts | 319° |
| 2026-04-26 21:29 | 40.49275 | -79.03373 | 32191 ft | 407 kts | 319° |
| 2026-04-26 21:30 | 40.53550 | -79.08243 | 32199 ft | 407 kts | 319° |
| 2026-04-26 21:30 | 40.57823 | -79.13123 | 32189 ft | 407 kts | 319° |
| 2026-04-26 21:31 | 40.62090 | -79.18005 | 32191 ft | 407 kts | 319° |
| 2026-04-26 21:31 | 40.66357 | -79.22894 | 32190 ft | 406 kts | 319° |
| 2026-04-26 21:32 | 40.70618 | -79.27785 | 32189 ft | 406 kts | 319° |
| 2026-04-26 21:32 | 40.74885 | -79.32680 | 32200 ft | 406 kts | 319° |
| 2026-04-26 21:33 | 40.79140 | -79.37579 | 32198 ft | 406 kts | 319° |
| 2026-04-26 21:33 | 40.83397 | -79.42492 | 32194 ft | 406 kts | 319° |
| 2026-04-26 21:34 | 40.87643 | -79.47424 | 32197 ft | 406 kts | 319° |
| 2026-04-26 21:34 | 40.91894 | -79.52344 | 32201 ft | 406 kts | 319° |
| 2026-04-26 21:35 | 40.96146 | -79.57271 | 32202 ft | 406 kts | 319° |
| 2026-04-26 21:35 | 41.00389 | -79.62200 | 32200 ft | 406 kts | 319° |
| 2026-04-26 21:36 | 41.04634 | -79.67145 | 32200 ft | 406 kts | 319° |
| 2026-04-26 21:36 | 41.08872 | -79.72080 | 32205 ft | 406 kts | 319° |
| 2026-04-26 21:37 | 41.13107 | -79.77026 | 32199 ft | 406 kts | 319° |
| 2026-04-26 21:37 | 41.17335 | -79.81979 | 32200 ft | 406 kts | 319° |
| 2026-04-26 21:38 | 41.21560 | -79.86946 | 32198 ft | 405 kts | 319° |
| 2026-04-26 21:38 | 41.25784 | -79.91910 | 32192 ft | 405 kts | 319° |
| 2026-04-26 21:39 | 41.30000 | -79.96880 | 32193 ft | 405 kts | 318° |
| 2026-04-26 21:39 | 41.34214 | -80.01851 | 32183 ft | 405 kts | 319° |
| 2026-04-26 21:40 | 41.38438 | -80.06817 | 32173 ft | 405 kts | 319° |
| 2026-04-26 21:40 | 41.42639 | -80.11800 | 32167 ft | 405 kts | 318° |
| 2026-04-26 21:41 | 41.46851 | -80.16759 | 32110 ft | 404 kts | 325° |
| 2026-04-26 21:41 | 41.49247 | -80.18738 | 31443 ft | 404 kts | 328° |
| 2026-04-26 21:41 | 41.51682 | -80.20638 | 30649 ft | 408 kts | 329° |
| 2026-04-26 21:42 | 41.54154 | -80.22528 | 29801 ft | 411 kts | 329° |
| 2026-04-26 21:42 | 41.56630 | -80.24403 | 29296 ft | 408 kts | 329° |
| 2026-04-26 21:42 | 41.59093 | -80.26272 | 28823 ft | 407 kts | 329° |
| 2026-04-26 21:42 | 41.61545 | -80.28144 | 28360 ft | 404 kts | 329° |
| 2026-04-26 21:43 | 41.63972 | -80.30010 | 27906 ft | 402 kts | 329° |
| 2026-04-26 21:43 | 41.66389 | -80.31882 | 27457 ft | 400 kts | 328° |
| 2026-04-26 21:43 | 41.68783 | -80.33745 | 27019 ft | 397 kts | 328° |
| 2026-04-26 21:43 | 41.71159 | -80.35604 | 26585 ft | 395 kts | 328° |
| 2026-04-26 21:44 | 41.73524 | -80.37459 | 26160 ft | 393 kts | 328° |
| 2026-04-26 21:44 | 41.75879 | -80.39299 | 25741 ft | 391 kts | 328° |
| 2026-04-26 21:44 | 41.78223 | -80.41129 | 25333 ft | 389 kts | 328° |
| 2026-04-26 21:44 | 41.80554 | -80.42951 | 24930 ft | 387 kts | 328° |
| 2026-04-26 21:45 | 41.82873 | -80.44759 | 24535 ft | 385 kts | 328° |
| 2026-04-26 21:45 | 41.85183 | -80.46562 | 24139 ft | 383 kts | 328° |
| 2026-04-26 21:45 | 41.87483 | -80.48359 | 23741 ft | 381 kts | 328° |
| 2026-04-26 21:45 | 41.89764 | -80.50139 | 23276 ft | 379 kts | 328° |
| 2026-04-26 21:46 | 41.92035 | -80.51915 | 22819 ft | 376 kts | 328° |
| 2026-04-26 21:46 | 41.94288 | -80.53679 | 22367 ft | 373 kts | 328° |
| 2026-04-26 21:46 | 41.96527 | -80.55435 | 21923 ft | 371 kts | 328° |
| 2026-04-26 21:46 | 41.98745 | -80.57175 | 21483 ft | 368 kts | 328° |
| 2026-04-26 21:47 | 42.00943 | -80.58904 | 21058 ft | 365 kts | 328° |
| 2026-04-26 21:47 | 42.03123 | -80.60633 | 20633 ft | 363 kts | 328° |
| 2026-04-26 21:47 | 42.05294 | -80.62353 | 20214 ft | 360 kts | 328° |
| 2026-04-26 21:47 | 42.07446 | -80.64054 | 19799 ft | 358 kts | 328° |
| 2026-04-26 21:48 | 42.09589 | -80.65744 | 19394 ft | 355 kts | 328° |
| 2026-04-26 21:48 | 42.11718 | -80.67402 | 18997 ft | 353 kts | 329° |
| 2026-04-26 21:48 | 42.13871 | -80.68988 | 18617 ft | 351 kts | 330° |
| 2026-04-26 21:48 | 42.16027 | -80.70514 | 18164 ft | 349 kts | 330° |
| 2026-04-26 21:49 | 42.18154 | -80.71999 | 17715 ft | 347 kts | 330° |
| 2026-04-26 21:49 | 42.20294 | -80.73495 | 17265 ft | 346 kts | 331° |
| 2026-04-26 21:49 | 42.22420 | -80.74989 | 16823 ft | 344 kts | 331° |
| 2026-04-26 21:49 | 42.24535 | -80.76483 | 16443 ft | 342 kts | 331° |
| 2026-04-26 21:50 | 42.26639 | -80.77977 | 16064 ft | 341 kts | 331° |
| 2026-04-26 21:50 | 42.28051 | -80.78984 | 15814 ft | 341 kts | 331° |
| 2026-04-26 21:50 | 42.30820 | -80.80964 | 15321 ft | 339 kts | 331° |
| 2026-04-26 21:50 | 42.32899 | -80.82456 | 14955 ft | 338 kts | 331° |
| 2026-04-26 21:51 | 42.34970 | -80.83946 | 14593 ft | 337 kts | 331° |
| 2026-04-26 21:51 | 42.37035 | -80.85431 | 14241 ft | 335 kts | 331° |
| 2026-04-26 21:51 | 42.39092 | -80.86907 | 13870 ft | 334 kts | 331° |
| 2026-04-26 21:51 | 42.41142 | -80.88379 | 13480 ft | 333 kts | 332° |
| 2026-04-26 21:52 | 42.43181 | -80.89840 | 13089 ft | 331 kts | 332° |
| 2026-04-26 21:52 | 42.45208 | -80.91293 | 12706 ft | 329 kts | 332° |
| 2026-04-26 21:52 | 42.47221 | -80.92736 | 12314 ft | 327 kts | 332° |
| 2026-04-26 21:52 | 42.49229 | -80.94179 | 11947 ft | 326 kts | 332° |
| 2026-04-26 21:53 | 42.51227 | -80.95618 | 11580 ft | 324 kts | 332° |
| 2026-04-26 21:53 | 42.53207 | -80.97045 | 11220 ft | 322 kts | 332° |
| 2026-04-26 21:53 | 42.55184 | -80.98473 | 10848 ft | 321 kts | 332° |
| 2026-04-26 21:53 | 42.57155 | -80.99897 | 10491 ft | 319 kts | 332° |
| 2026-04-26 21:54 | 42.59107 | -81.01308 | 10146 ft | 318 kts | 332° |
| 2026-04-26 21:54 | 42.61050 | -81.02713 | 9732 ft | 314 kts | 332° |
| 2026-04-26 21:54 | 42.62950 | -81.04084 | 9352 ft | 309 kts | 332° |
| 2026-04-26 21:54 | 42.64842 | -81.05454 | 8962 ft | 305 kts | 332° |
| 2026-04-26 21:55 | 42.66704 | -81.06806 | 8586 ft | 301 kts | 332° |
| 2026-04-26 21:55 | 42.68541 | -81.08143 | 8207 ft | 298 kts | 332° |
| 2026-04-26 21:55 | 42.70359 | -81.09466 | 7835 ft | 295 kts | 333° |
| 2026-04-26 21:55 | 42.72155 | -81.10771 | 7469 ft | 292 kts | 333° |
| 2026-04-26 21:56 | 42.73943 | -81.12068 | 7098 ft | 289 kts | 333° |
| 2026-04-26 21:56 | 42.75709 | -81.13350 | 6740 ft | 287 kts | 334° |
| 2026-04-26 21:56 | 42.77438 | -81.14608 | 6362 ft | 276 kts | 334° |
| 2026-04-26 21:56 | 42.79128 | -81.15838 | 5985 ft | 274 kts | 334° |
| 2026-04-26 21:57 | 42.80806 | -81.17059 | 5596 ft | 273 kts | 334° |
| 2026-04-26 21:57 | 42.82484 | -81.18279 | 5227 ft | 275 kts | 334° |
| 2026-04-26 21:57 | 42.84160 | -81.19498 | 5000 ft | 272 kts | 334° |
| 2026-04-26 21:57 | 42.85821 | -81.20710 | 5007 ft | 272 kts | 334° |
| 2026-04-26 21:58 | 42.87456 | -81.22015 | 5012 ft | 273 kts | 326° |
| 2026-04-26 21:58 | 42.88931 | -81.23644 | 4729 ft | 272 kts | 321° |
| 2026-04-26 21:58 | 42.90360 | -81.25325 | 4340 ft | 271 kts | 321° |
| 2026-04-26 21:58 | 42.91780 | -81.27002 | 4037 ft | 268 kts | 321° |
| 2026-04-26 21:59 | 42.93192 | -81.28671 | 4008 ft | 269 kts | 321° |
| 2026-04-26 21:59 | 42.94612 | -81.30348 | 4011 ft | 270 kts | 321° |
| 2026-04-26 21:59 | 42.96037 | -81.32027 | 4005 ft | 270 kts | 321° |
| 2026-04-26 21:59 | 42.97458 | -81.33697 | 4019 ft | 270 kts | 322° |
| 2026-04-26 22:00 | 42.98874 | -81.35374 | 4008 ft | 269 kts | 321° |
| 2026-04-26 22:00 | 43.00297 | -81.37044 | 4011 ft | 270 kts | 321° |
| 2026-04-26 22:00 | 43.01722 | -81.38719 | 4012 ft | 270 kts | 321° |
| 2026-04-26 22:00 | 43.03147 | -81.40395 | 4009 ft | 271 kts | 321° |
| 2026-04-26 22:01 | 43.04576 | -81.42074 | 4011 ft | 272 kts | 321° |
| 2026-04-26 22:01 | 43.06010 | -81.43761 | 4013 ft | 271 kts | 321° |
| 2026-04-26 22:01 | 43.07406 | -81.45395 | 3958 ft | 259 kts | 321° |
| 2026-04-26 22:01 | 43.08749 | -81.46973 | 3841 ft | 250 kts | 321° |
| 2026-04-26 22:02 | 43.10047 | -81.48490 | 3707 ft | 241 kts | 321° |
| 2026-04-26 22:02 | 43.10886 | -81.49456 | 3625 ft | 235 kts | 324° |
| 2026-04-26 22:02 | 43.12850 | -81.50334 | 3374 ft | 217 kts | 9° |
| 2026-04-26 22:02 | 43.14171 | -81.49596 | 3234 ft | 201 kts | 42° |
| 2026-04-26 22:03 | 43.15148 | -81.48272 | 3111 ft | 197 kts | 50° |
| 2026-04-26 22:03 | 43.16058 | -81.46870 | 3008 ft | 197 kts | 51° |
| 2026-04-26 22:03 | 43.16961 | -81.45459 | 3019 ft | 197 kts | 52° |
| 2026-04-26 22:03 | 43.17866 | -81.44046 | 3017 ft | 197 kts | 52° |
| 2026-04-26 22:04 | 43.18438 | -81.42393 | 3016 ft | 193 kts | 85° |
| 2026-04-26 22:04 | 43.18222 | -81.40595 | 3018 ft | 193 kts | 108° |
| 2026-04-26 22:04 | 43.17764 | -81.38876 | 3014 ft | 193 kts | 111° |
| 2026-04-26 22:04 | 43.17276 | -81.37163 | 3018 ft | 192 kts | 110° |
| 2026-04-26 22:05 | 43.16776 | -81.35465 | 3012 ft | 192 kts | 111° |
| 2026-04-26 22:05 | 43.16284 | -81.33769 | 3014 ft | 191 kts | 111° |
| 2026-04-26 22:05 | 43.15794 | -81.32071 | 3008 ft | 192 kts | 111° |
| 2026-04-26 22:05 | 43.15300 | -81.30363 | 3017 ft | 193 kts | 110° |
| 2026-04-26 22:06 | 43.14715 | -81.28720 | 3002 ft | 194 kts | 127° |
| 2026-04-26 22:06 | 43.13781 | -81.27515 | 3018 ft | 174 kts | 136° |
| 2026-04-26 22:06 | 43.12930 | -81.26497 | 3037 ft | 153 kts | 135° |
| 2026-04-26 22:06 | 43.12159 | -81.25568 | 2978 ft | 144 kts | 136° |
| 2026-04-26 22:07 | 43.11429 | -81.24687 | 2842 ft | 140 kts | 136° |
| 2026-04-26 22:07 | 43.10705 | -81.23812 | 2693 ft | 137 kts | 136° |
| 2026-04-26 22:07 | 43.09969 | -81.22930 | 2471 ft | 139 kts | 134° |
| 2026-04-26 22:07 | 43.09491 | -81.22353 | 2355 ft | 138 kts | 136° |
| 2026-04-26 22:08 | 43.08531 | -81.21200 | 2131 ft | 138 kts | 136° |
| 2026-04-26 22:08 | 43.07809 | -81.20336 | 1920 ft | 138 kts | 135° |
| 2026-04-26 22:08 | 43.07104 | -81.19466 | 1733 ft | 136 kts | 135° |
| 2026-04-26 22:08 | 43.06382 | -81.18605 | 1514 ft | 136 kts | 137° |
| 2026-04-26 22:09 | 43.05677 | -81.17753 | 1367 ft | 134 kts | 136° |
| 2026-04-26 22:09 | 43.04965 | -81.16897 | 1166 ft | 137 kts | 135° |
| 2026-04-26 22:09 | 43.04251 | -81.16031 | 966 ft | 137 kts | 135° |
| 2026-04-26 22:09 | 43.03578 | -81.15224 | 910 ft | 110 kts | 137° |
| 2026-04-26 22:10 | 43.03156 | -81.14712 | 907 ft | 55 kts | 139° |
| 2026-04-26 22:10 | 43.02946 | -81.14458 | 909 ft | 41 kts | 138° |
| 2026-04-26 22:10 | 43.02730 | -81.14189 | 909 ft | 42 kts | 138° |
| 2026-04-26 22:10 | 43.02512 | -81.13933 | 907 ft | 42 kts | 139° |
| 2026-04-26 22:11 | 43.02412 | -81.13849 | 907 ft | 17 kts | 178° |
| 2026-04-26 22:11 | 43.02328 | -81.13945 | 908 ft | 11 kts | 230° |
| 2026-04-26 22:11 | 43.02324 | -81.14026 | 911 ft | 8 kts | 309° |
| 2026-04-26 22:11 | 43.02350 | -81.14063 | 908 ft | 8 kts | 315° |
| 2026-04-26 22:12 | 43.02392 | -81.14115 | 908 ft | 12 kts | 319° |
| 2026-04-26 22:12 | 43.02477 | -81.14218 | 909 ft | 17 kts | 318° |
| 2026-04-26 22:12 | 43.02557 | -81.14312 | 909 ft | 14 kts | 319° |
| 2026-04-26 22:12 | 43.02622 | -81.14391 | 909 ft | 11 kts | 319° |
| 2026-04-26 22:13 | 43.02678 | -81.14458 | 910 ft | 12 kts | 318° |
| 2026-04-26 22:13 | 43.02750 | -81.14549 | 909 ft | 14 kts | 308° |
| 2026-04-26 22:13 | 43.02812 | -81.14624 | 909 ft | 10 kts | 323° |
| 2026-04-26 22:13 | 43.02858 | -81.14673 | 909 ft | 7 kts | 321° |
| 2026-04-26 22:14 | 43.02890 | -81.14709 | 908 ft | 6 kts | 321° |
| 2026-04-26 22:14 | 43.02910 | -81.14739 | 908 ft | 3 kts | 298° |
| 2026-04-26 22:14 | 43.02912 | -81.14775 | 909 ft | 3 kts | 261° |
| 2026-04-26 22:14 | 43.02911 | -81.14790 | 909 ft | 0 kts | 261° |
| 2026-04-26 22:15 | 43.02909 | -81.14804 | 909 ft | 2 kts | 260° |
| 2026-04-26 22:15 | 43.02908 | -81.14815 | 909 ft | 0 kts | 259° |
| 2026-04-26 22:15 | 43.02907 | -81.14820 | 909 ft | 0 kts | 259° |